sensor_id;sensor_type;location;lat;lon;timestamp;temperature;humidity
7784;DHT22;19359;51.402;6.778;2022-11-11T00:01:32;9.00;1.00
7784;DHT22;19359;51.402;6.778;2022-11-11T00:03:59;9.00;1.00
7784;DHT22;19359;51.402;6.778;2022-11-11T00:06:26;9.00;1.00
7784;DHT22;19359;51.402;6.778;2022-11-11T00:08:54;8.90;1.00
7784;DHT22;19359;51.402;6.778;2022-11-11T00:11:20;8.90;1.00
7784;DHT22;19359;51.402;6.778;2022-11-11T00:13:47;8.80;1.00
7784;DHT22;19359;51.402;6.778;2022-11-11T00:16:15;8.90;1.00
7784;DHT22;19359;51.402;6.778;2022-11-11T00:18:43;8.80;1.00
7784;DHT22;19359;51.402;6.778;2022-11-11T00:21:28;8.80;1.00
7784;DHT22;19359;51.402;6.778;2022-11-11T00:24:20;8.80;1.00
7784;DHT22;19359;51.402;6.778;2022-11-11T00:27:05;8.70;1.00
7784;DHT22;19359;51.402;6.778;2022-11-11T00:29:32;8.70;1.00
7784;DHT22;19359;51.402;6.778;2022-11-11T00:31:59;8.70;1.00
7784;DHT22;19359;51.402;6.778;2022-11-11T00:34:43;8.70;1.00
7784;DHT22;19359;51.402;6.778;2022-11-11T00:37:31;8.70;1.00
7784;DHT22;19359;51.402;6.778;2022-11-11T00:39:58;8.70;1.00
7784;DHT22;19359;51.402;6.778;2022-11-11T00:42:25;8.60;1.00
7784;DHT22;19359;51.402;6.778;2022-11-11T00:44:52;8.60;1.00
7784;DHT22;19359;51.402;6.778;2022-11-11T00:47:19;8.60;1.00
7784;DHT22;19359;51.402;6.778;2022-11-11T00:50:05;8.60;1.00
7784;DHT22;19359;51.402;6.778;2022-11-11T00:52:50;8.60;1.00
7784;DHT22;19359;51.402;6.778;2022-11-11T00:55:18;8.70;1.00
7784;DHT22;19359;51.402;6.778;2022-11-11T00:57:44;8.50;1.00
7784;DHT22;19359;51.402;6.778;2022-11-11T01:00:12;8.50;1.00
7784;DHT22;19359;51.402;6.778;2022-11-11T01:02:39;8.50;1.00
7784;DHT22;19359;51.402;6.778;2022-11-11T01:05:06;8.50;1.00
7784;DHT22;19359;51.402;6.778;2022-11-11T01:07:33;8.40;1.00
7784;DHT22;19359;51.402;6.778;2022-11-11T01:10:00;8.40;1.00
7784;DHT22;19359;51.402;6.778;2022-11-11T01:12:28;8.40;1.00
7784;DHT22;19359;51.402;6.778;2022-11-11T01:14:54;8.40;1.00
7784;DHT22;19359;51.402;6.778;2022-11-11T01:17:21;8.40;1.00
7784;DHT22;19359;51.402;6.778;2022-11-11T01:19:48;8.40;1.00
7784;DHT22;19359;51.402;6.778;2022-11-11T01:22:15;8.30;1.00
7784;DHT22;19359;51.402;6.778;2022-11-11T01:24:41;8.30;1.00
7784;DHT22;19359;51.402;6.778;2022-11-11T01:27:08;8.30;1.00
7784;DHT22;19359;51.402;6.778;2022-11-11T01:29:36;8.30;1.00
7784;DHT22;19359;51.402;6.778;2022-11-11T01:32:03;8.30;25.40
7784;DHT22;19359;51.402;6.778;2022-11-11T01:34:30;8.30;30.00
7784;DHT22;19359;51.402;6.778;2022-11-11T01:36:56;8.30;70.80
7784;DHT22;19359;51.402;6.778;2022-11-11T01:39:23;8.20;99.90
7784;DHT22;19359;51.402;6.778;2022-11-11T01:41:50;8.30;99.90
7784;DHT22;19359;51.402;6.778;2022-11-11T01:44:39;8.30;99.90
7784;DHT22;19359;51.402;6.778;2022-11-11T01:47:07;8.30;99.90
7784;DHT22;19359;51.402;6.778;2022-11-11T01:49:39;8.20;99.90
7784;DHT22;19359;51.402;6.778;2022-11-11T01:52:13;8.20;99.90
7784;DHT22;19359;51.402;6.778;2022-11-11T01:54:44;8.20;99.90
7784;DHT22;19359;51.402;6.778;2022-11-11T01:57:14;8.10;99.90
7784;DHT22;19359;51.402;6.778;2022-11-11T01:59:45;8.10;99.90
7784;DHT22;19359;51.402;6.778;2022-11-11T02:02:18;8.10;99.90
7784;DHT22;19359;51.402;6.778;2022-11-11T02:04:48;8.20;99.90
7784;DHT22;19359;51.402;6.778;2022-11-11T02:07:33;8.20;99.90
7784;DHT22;19359;51.402;6.778;2022-11-11T02:10:02;8.10;99.90
7784;DHT22;19359;51.402;6.778;2022-11-11T02:12:30;8.10;99.90
7784;DHT22;19359;51.402;6.778;2022-11-11T02:15:15;8.20;99.90
7784;DHT22;19359;51.402;6.778;2022-11-11T02:17:45;8.10;99.90
7784;DHT22;19359;51.402;6.778;2022-11-11T02:20:14;8.10;99.90
7784;DHT22;19359;51.402;6.778;2022-11-11T02:22:47;8.20;99.90
7784;DHT22;19359;51.402;6.778;2022-11-11T02:25:18;8.20;99.90
7784;DHT22;19359;51.402;6.778;2022-11-11T02:27:49;8.10;99.90
7784;DHT22;19359;51.402;6.778;2022-11-11T02:30:18;8.10;99.90
7784;DHT22;19359;51.402;6.778;2022-11-11T02:32:48;8.10;99.90
7784;DHT22;19359;51.402;6.778;2022-11-11T02:35:17;8.10;99.90
7784;DHT22;19359;51.402;6.778;2022-11-11T02:37:47;8.10;99.90
7784;DHT22;19359;51.402;6.778;2022-11-11T02:40:19;8.10;99.90
7784;DHT22;19359;51.402;6.778;2022-11-11T02:42:48;8.10;99.90
7784;DHT22;19359;51.402;6.778;2022-11-11T02:45:14;8.10;99.90
7784;DHT22;19359;51.402;6.778;2022-11-11T02:47:41;8.10;99.90
7784;DHT22;19359;51.402;6.778;2022-11-11T02:50:08;8.10;99.90
7784;DHT22;19359;51.402;6.778;2022-11-11T02:52:36;8.00;99.90
7784;DHT22;19359;51.402;6.778;2022-11-11T02:55:03;8.00;99.90
7784;DHT22;19359;51.402;6.778;2022-11-11T02:57:31;7.90;99.90
7784;DHT22;19359;51.402;6.778;2022-11-11T02:59:59;7.90;99.90
7784;DHT22;19359;51.402;6.778;2022-11-11T03:02:27;7.80;99.90
7784;DHT22;19359;51.402;6.778;2022-11-11T03:04:54;7.80;1.00
7784;DHT22;19359;51.402;6.778;2022-11-11T03:07:21;7.80;1.00
7784;DHT22;19359;51.402;6.778;2022-11-11T03:09:48;7.90;1.00
7784;DHT22;19359;51.402;6.778;2022-11-11T03:12:15;7.80;1.00
7784;DHT22;19359;51.402;6.778;2022-11-11T03:14:44;7.80;1.00
7784;DHT22;19359;51.402;6.778;2022-11-11T03:17:10;7.80;1.00
7784;DHT22;19359;51.402;6.778;2022-11-11T03:19:54;7.80;1.00
7784;DHT22;19359;51.402;6.778;2022-11-11T03:22:41;7.80;99.90
7784;DHT22;19359;51.402;6.778;2022-11-11T03:25:08;7.80;99.90
7784;DHT22;19359;51.402;6.778;2022-11-11T03:27:52;7.80;99.90
7784;DHT22;19359;51.402;6.778;2022-11-11T03:30:20;7.70;99.90
7784;DHT22;19359;51.402;6.778;2022-11-11T03:32:47;7.80;99.90
7784;DHT22;19359;51.402;6.778;2022-11-11T03:35:13;7.70;99.90
7784;DHT22;19359;51.402;6.778;2022-11-11T03:37:40;7.70;99.90
7784;DHT22;19359;51.402;6.778;2022-11-11T03:40:24;7.70;99.90
7784;DHT22;19359;51.402;6.778;2022-11-11T03:42:51;7.70;99.90
7784;DHT22;19359;51.402;6.778;2022-11-11T03:45:19;7.60;99.90
7784;DHT22;19359;51.402;6.778;2022-11-11T03:47:46;7.60;99.90
7784;DHT22;19359;51.402;6.778;2022-11-11T03:50:13;7.60;1.00
7784;DHT22;19359;51.402;6.778;2022-11-11T03:52:40;7.60;1.00
7784;DHT22;19359;51.402;6.778;2022-11-11T03:55:08;7.70;1.00
7784;DHT22;19359;51.402;6.778;2022-11-11T03:57:39;7.60;1.00
7784;DHT22;19359;51.402;6.778;2022-11-11T04:00:07;7.60;1.00
7784;DHT22;19359;51.402;6.778;2022-11-11T04:02:35;7.60;1.00
7784;DHT22;19359;51.402;6.778;2022-11-11T04:05:19;7.60;1.00
7784;DHT22;19359;51.402;6.778;2022-11-11T04:08:04;7.60;99.90
7784;DHT22;19359;51.402;6.778;2022-11-11T04:10:48;7.50;99.90
7784;DHT22;19359;51.402;6.778;2022-11-11T04:13:15;7.40;99.90
7784;DHT22;19359;51.402;6.778;2022-11-11T04:15:59;7.50;35.90
7784;DHT22;19359;51.402;6.778;2022-11-11T04:18:33;7.50;1.00
7784;DHT22;19359;51.402;6.778;2022-11-11T04:21:18;7.50;50.00
7784;DHT22;19359;51.402;6.778;2022-11-11T04:24:02;7.50;1.00
7784;DHT22;19359;51.402;6.778;2022-11-11T04:26:49;7.50;1.00
7784;DHT22;19359;51.402;6.778;2022-11-11T04:29:14;7.50;99.90
7784;DHT22;19359;51.402;6.778;2022-11-11T04:31:53;7.40;1.00
7784;DHT22;19359;51.402;6.778;2022-11-11T04:34:39;7.40;1.00
7784;DHT22;19359;51.402;6.778;2022-11-11T04:37:06;7.50;1.00
7784;DHT22;19359;51.402;6.778;2022-11-11T04:39:33;7.50;1.00
7784;DHT22;19359;51.402;6.778;2022-11-11T04:42:17;7.50;99.90
7784;DHT22;19359;51.402;6.778;2022-11-11T04:44:43;7.50;99.90
7784;DHT22;19359;51.402;6.778;2022-11-11T04:47:28;7.40;1.00
7784;DHT22;19359;51.402;6.778;2022-11-11T04:49:56;7.50;99.90
7784;DHT22;19359;51.402;6.778;2022-11-11T04:52:23;7.40;1.00
7784;DHT22;19359;51.402;6.778;2022-11-11T04:54:53;7.40;1.00
7784;DHT22;19359;51.402;6.778;2022-11-11T04:57:39;7.40;1.00
7784;DHT22;19359;51.402;6.778;2022-11-11T05:00:07;7.50;1.00
7784;DHT22;19359;51.402;6.778;2022-11-11T05:02:34;7.50;1.00
7784;DHT22;19359;51.402;6.778;2022-11-11T05:05:20;7.50;99.90
7784;DHT22;19359;51.402;6.778;2022-11-11T05:07:47;7.50;1.00
7784;DHT22;19359;51.402;6.778;2022-11-11T05:10:31;7.50;1.00
7784;DHT22;19359;51.402;6.778;2022-11-11T05:12:58;7.50;1.00
7784;DHT22;19359;51.402;6.778;2022-11-11T05:15:39;7.50;1.00
7784;DHT22;19359;51.402;6.778;2022-11-11T05:18:25;7.50;99.90
7784;DHT22;19359;51.402;6.778;2022-11-11T05:21:12;7.50;99.90
7784;DHT22;19359;51.402;6.778;2022-11-11T05:23:46;7.60;99.90
7784;DHT22;19359;51.402;6.778;2022-11-11T05:26:35;7.50;99.90
7784;DHT22;19359;51.402;6.778;2022-11-11T05:29:02;7.50;2.60
7784;DHT22;19359;51.402;6.778;2022-11-11T05:31:30;7.70;1.00
7784;DHT22;19359;51.402;6.778;2022-11-11T05:33:57;7.50;1.00
7784;DHT22;19359;51.402;6.778;2022-11-11T05:36:25;7.60;1.00
7784;DHT22;19359;51.402;6.778;2022-11-11T05:38:52;7.50;1.00
7784;DHT22;19359;51.402;6.778;2022-11-11T05:41:18;7.60;1.00
7784;DHT22;19359;51.402;6.778;2022-11-11T05:43:45;7.60;1.00
7784;DHT22;19359;51.402;6.778;2022-11-11T05:46:12;7.60;1.00
7784;DHT22;19359;51.402;6.778;2022-11-11T05:48:39;7.60;1.00
7784;DHT22;19359;51.402;6.778;2022-11-11T05:51:27;7.60;1.00
7784;DHT22;19359;51.402;6.778;2022-11-11T05:53:55;7.60;1.00
7784;DHT22;19359;51.402;6.778;2022-11-11T05:56:22;7.70;1.00
7784;DHT22;19359;51.402;6.778;2022-11-11T05:58:49;7.70;1.00
7784;DHT22;19359;51.402;6.778;2022-11-11T06:01:15;7.70;99.90
7784;DHT22;19359;51.402;6.778;2022-11-11T06:03:42;7.70;99.90
7784;DHT22;19359;51.402;6.778;2022-11-11T06:06:10;7.70;99.90
7784;DHT22;19359;51.402;6.778;2022-11-11T06:08:38;7.80;99.90
7784;DHT22;19359;51.402;6.778;2022-11-11T06:11:04;7.70;99.90
7784;DHT22;19359;51.402;6.778;2022-11-11T06:13:31;7.70;99.90
7784;DHT22;19359;51.402;6.778;2022-11-11T06:15:58;7.60;99.90
7784;DHT22;19359;51.402;6.778;2022-11-11T06:18:25;7.60;99.90
7784;DHT22;19359;51.402;6.778;2022-11-11T06:20:52;7.60;99.90
7784;DHT22;19359;51.402;6.778;2022-11-11T06:23:20;7.60;99.90
7784;DHT22;19359;51.402;6.778;2022-11-11T06:25:48;7.60;99.90
7784;DHT22;19359;51.402;6.778;2022-11-11T06:28:33;7.70;99.90
7784;DHT22;19359;51.402;6.778;2022-11-11T06:31:00;7.70;99.90
7784;DHT22;19359;51.402;6.778;2022-11-11T06:33:26;7.70;99.90
7784;DHT22;19359;51.402;6.778;2022-11-11T06:35:53;7.70;99.90
7784;DHT22;19359;51.402;6.778;2022-11-11T06:38:20;7.70;99.90
7784;DHT22;19359;51.402;6.778;2022-11-11T06:40:48;7.70;99.90
7784;DHT22;19359;51.402;6.778;2022-11-11T06:43:15;7.70;99.90
7784;DHT22;19359;51.402;6.778;2022-11-11T06:45:41;7.60;99.90
7784;DHT22;19359;51.402;6.778;2022-11-11T06:48:08;7.60;99.90
7784;DHT22;19359;51.402;6.778;2022-11-11T06:50:35;7.60;99.90
7784;DHT22;19359;51.402;6.778;2022-11-11T06:53:05;7.60;99.90
7784;DHT22;19359;51.402;6.778;2022-11-11T06:55:32;7.60;99.90
7784;DHT22;19359;51.402;6.778;2022-11-11T06:58:05;7.60;99.90
7784;DHT22;19359;51.402;6.778;2022-11-11T07:00:32;7.60;99.90
7784;DHT22;19359;51.402;6.778;2022-11-11T07:02:58;7.60;99.90
7784;DHT22;19359;51.402;6.778;2022-11-11T07:05:25;7.60;99.90
7784;DHT22;19359;51.402;6.778;2022-11-11T07:07:52;7.60;99.90
7784;DHT22;19359;51.402;6.778;2022-11-11T07:10:19;7.70;99.90
7784;DHT22;19359;51.402;6.778;2022-11-11T07:12:46;7.70;99.90
7784;DHT22;19359;51.402;6.778;2022-11-11T07:15:14;7.80;99.90
7784;DHT22;19359;51.402;6.778;2022-11-11T07:17:41;7.80;99.90
7784;DHT22;19359;51.402;6.778;2022-11-11T07:20:09;7.80;92.80
7784;DHT22;19359;51.402;6.778;2022-11-11T07:22:35;7.80;56.20
7784;DHT22;19359;51.402;6.778;2022-11-11T07:25:03;7.90;34.80
7784;DHT22;19359;51.402;6.778;2022-11-11T07:27:30;7.90;9.40
7784;DHT22;19359;51.402;6.778;2022-11-11T07:29:56;8.00;1.00
7784;DHT22;19359;51.402;6.778;2022-11-11T07:32:24;8.00;1.00
7784;DHT22;19359;51.402;6.778;2022-11-11T07:34:51;8.00;1.00
7784;DHT22;19359;51.402;6.778;2022-11-11T07:37:18;8.10;1.00
7784;DHT22;19359;51.402;6.778;2022-11-11T07:39:45;8.10;1.00
7784;DHT22;19359;51.402;6.778;2022-11-11T07:42:11;8.20;1.00
7784;DHT22;19359;51.402;6.778;2022-11-11T07:44:38;8.20;1.00
7784;DHT22;19359;51.402;6.778;2022-11-11T07:47:05;8.20;1.00
7784;DHT22;19359;51.402;6.778;2022-11-11T07:49:33;8.30;1.00
7784;DHT22;19359;51.402;6.778;2022-11-11T07:51:59;8.30;1.00
7784;DHT22;19359;51.402;6.778;2022-11-11T07:54:26;8.40;1.00
7784;DHT22;19359;51.402;6.778;2022-11-11T07:56:53;8.40;1.00
7784;DHT22;19359;51.402;6.778;2022-11-11T07:59:20;8.50;1.00
7784;DHT22;19359;51.402;6.778;2022-11-11T08:01:46;8.50;1.00
7784;DHT22;19359;51.402;6.778;2022-11-11T08:04:13;8.60;1.00
7784;DHT22;19359;51.402;6.778;2022-11-11T08:06:41;8.60;1.00
7784;DHT22;19359;51.402;6.778;2022-11-11T08:09:08;8.70;1.00
7784;DHT22;19359;51.402;6.778;2022-11-11T08:11:34;8.80;1.00
7784;DHT22;19359;51.402;6.778;2022-11-11T08:14:18;8.80;1.00
7784;DHT22;19359;51.402;6.778;2022-11-11T08:16:45;8.90;1.00
7784;DHT22;19359;51.402;6.778;2022-11-11T08:19:12;8.90;1.00
7784;DHT22;19359;51.402;6.778;2022-11-11T08:21:38;8.90;1.00
7784;DHT22;19359;51.402;6.778;2022-11-11T08:24:07;9.00;1.00
7784;DHT22;19359;51.402;6.778;2022-11-11T08:26:34;9.10;1.00
7784;DHT22;19359;51.402;6.778;2022-11-11T08:29:00;9.10;1.00
7784;DHT22;19359;51.402;6.778;2022-11-11T08:31:27;9.20;1.00
7784;DHT22;19359;51.402;6.778;2022-11-11T08:33:54;9.40;1.00
7784;DHT22;19359;51.402;6.778;2022-11-11T08:36:21;9.30;1.00
7784;DHT22;19359;51.402;6.778;2022-11-11T08:38:49;9.30;1.00
7784;DHT22;19359;51.402;6.778;2022-11-11T08:41:17;9.40;1.00
7784;DHT22;19359;51.402;6.778;2022-11-11T08:43:45;9.40;1.00
7784;DHT22;19359;51.402;6.778;2022-11-11T08:46:12;9.50;1.00
7784;DHT22;19359;51.402;6.778;2022-11-11T08:48:39;9.50;1.00
7784;DHT22;19359;51.402;6.778;2022-11-11T08:51:07;9.60;1.00
7784;DHT22;19359;51.402;6.778;2022-11-11T08:53:33;9.70;1.00
7784;DHT22;19359;51.402;6.778;2022-11-11T08:56:00;9.70;1.00
7784;DHT22;19359;51.402;6.778;2022-11-11T08:58:29;9.80;1.00
7784;DHT22;19359;51.402;6.778;2022-11-11T09:00:56;9.90;1.00
7784;DHT22;19359;51.402;6.778;2022-11-11T09:03:22;9.90;1.00
7784;DHT22;19359;51.402;6.778;2022-11-11T09:05:49;10.00;1.00
7784;DHT22;19359;51.402;6.778;2022-11-11T09:08:16;10.00;1.00
7784;DHT22;19359;51.402;6.778;2022-11-11T09:10:43;10.10;1.00
7784;DHT22;19359;51.402;6.778;2022-11-11T09:13:09;10.10;1.00
7784;DHT22;19359;51.402;6.778;2022-11-11T09:15:37;10.10;1.00
7784;DHT22;19359;51.402;6.778;2022-11-11T09:18:04;10.20;1.00
7784;DHT22;19359;51.402;6.778;2022-11-11T09:20:31;10.30;1.00
7784;DHT22;19359;51.402;6.778;2022-11-11T09:22:57;10.30;1.00
7784;DHT22;19359;51.402;6.778;2022-11-11T09:25:24;10.30;1.00
7784;DHT22;19359;51.402;6.778;2022-11-11T09:27:54;10.30;1.00
7784;DHT22;19359;51.402;6.778;2022-11-11T09:30:21;10.40;1.00
7784;DHT22;19359;51.402;6.778;2022-11-11T09:32:49;10.40;1.00
7784;DHT22;19359;51.402;6.778;2022-11-11T09:35:17;10.50;1.00
7784;DHT22;19359;51.402;6.778;2022-11-11T09:37:52;10.50;1.00
7784;DHT22;19359;51.402;6.778;2022-11-11T09:40:21;10.70;1.00
7784;DHT22;19359;51.402;6.778;2022-11-11T09:42:59;10.60;1.00
7784;DHT22;19359;51.402;6.778;2022-11-11T09:45:34;10.70;1.00
7784;DHT22;19359;51.402;6.778;2022-11-11T09:48:10;10.70;1.00
7784;DHT22;19359;51.402;6.778;2022-11-11T09:50:42;10.80;1.00
7784;DHT22;19359;51.402;6.778;2022-11-11T09:53:22;10.90;1.00
7784;DHT22;19359;51.402;6.778;2022-11-11T09:55:55;10.90;1.00
7784;DHT22;19359;51.402;6.778;2022-11-11T09:58:27;11.00;1.00
7784;DHT22;19359;51.402;6.778;2022-11-11T10:00:59;11.00;1.00
7784;DHT22;19359;51.402;6.778;2022-11-11T10:03:29;11.00;1.00
7784;DHT22;19359;51.402;6.778;2022-11-11T10:06:01;11.10;1.00
7784;DHT22;19359;51.402;6.778;2022-11-11T10:08:31;11.20;1.00
7784;DHT22;19359;51.402;6.778;2022-11-11T10:10:59;11.20;1.00
7784;DHT22;19359;51.402;6.778;2022-11-11T10:13:29;11.30;1.00
7784;DHT22;19359;51.402;6.778;2022-11-11T10:16:05;11.40;1.00
7784;DHT22;19359;51.402;6.778;2022-11-11T10:18:52;11.40;1.00
7784;DHT22;19359;51.402;6.778;2022-11-11T10:21:24;11.50;1.00
7784;DHT22;19359;51.402;6.778;2022-11-11T10:23:55;11.50;1.00
7784;DHT22;19359;51.402;6.778;2022-11-11T10:26:31;11.60;1.00
7784;DHT22;19359;51.402;6.778;2022-11-11T10:29:03;11.60;1.00
7784;DHT22;19359;51.402;6.778;2022-11-11T10:31:31;11.70;1.00
7784;DHT22;19359;51.402;6.778;2022-11-11T10:34:02;11.70;1.00
7784;DHT22;19359;51.402;6.778;2022-11-11T10:36:30;11.90;1.00
7784;DHT22;19359;51.402;6.778;2022-11-11T10:38:59;11.90;1.00
7784;DHT22;19359;51.402;6.778;2022-11-11T10:41:32;12.00;1.00
7784;DHT22;19359;51.402;6.778;2022-11-11T10:44:00;12.00;1.00
7784;DHT22;19359;51.402;6.778;2022-11-11T10:46:29;12.00;1.00
7784;DHT22;19359;51.402;6.778;2022-11-11T10:49:01;12.10;1.00
7784;DHT22;19359;51.402;6.778;2022-11-11T10:51:35;12.10;1.00
7784;DHT22;19359;51.402;6.778;2022-11-11T10:54:07;12.20;1.00
7784;DHT22;19359;51.402;6.778;2022-11-11T10:56:39;12.20;1.00
7784;DHT22;19359;51.402;6.778;2022-11-11T10:59:15;12.30;1.00
7784;DHT22;19359;51.402;6.778;2022-11-11T11:01:47;12.30;1.00
7784;DHT22;19359;51.402;6.778;2022-11-11T11:04:23;12.40;1.00
7784;DHT22;19359;51.402;6.778;2022-11-11T11:06:54;12.50;1.00
7784;DHT22;19359;51.402;6.778;2022-11-11T11:09:27;12.50;1.00
7784;DHT22;19359;51.402;6.778;2022-11-11T11:11:58;12.60;1.00
7784;DHT22;19359;51.402;6.778;2022-11-11T11:14:29;12.60;1.00
7784;DHT22;19359;51.402;6.778;2022-11-11T11:16:59;12.60;1.00
7784;DHT22;19359;51.402;6.778;2022-11-11T11:19:29;12.70;1.00
7784;DHT22;19359;51.402;6.778;2022-11-11T11:21:57;12.80;1.00
7784;DHT22;19359;51.402;6.778;2022-11-11T11:24:25;12.80;1.00
7784;DHT22;19359;51.402;6.778;2022-11-11T11:26:54;12.80;1.00
7784;DHT22;19359;51.402;6.778;2022-11-11T11:29:25;12.80;1.00
7784;DHT22;19359;51.402;6.778;2022-11-11T11:31:52;12.80;1.00
7784;DHT22;19359;51.402;6.778;2022-11-11T11:34:19;12.80;1.00
7784;DHT22;19359;51.402;6.778;2022-11-11T11:37:00;12.80;1.00
7784;DHT22;19359;51.402;6.778;2022-11-11T11:39:34;12.80;1.00
7784;DHT22;19359;51.402;6.778;2022-11-11T11:42:01;12.90;1.00
7784;DHT22;19359;51.402;6.778;2022-11-11T11:44:30;13.00;1.00
7784;DHT22;19359;51.402;6.778;2022-11-11T11:47:08;13.00;1.00
7784;DHT22;19359;51.402;6.778;2022-11-11T11:49:47;13.00;1.00
7784;DHT22;19359;51.402;6.778;2022-11-11T11:52:27;13.10;1.00
7784;DHT22;19359;51.402;6.778;2022-11-11T11:55:02;13.10;1.00
7784;DHT22;19359;51.402;6.778;2022-11-11T11:57:42;13.10;1.00
7784;DHT22;19359;51.402;6.778;2022-11-11T12:00:16;13.10;1.00
7784;DHT22;19359;51.402;6.778;2022-11-11T12:03:07;13.10;1.00
7784;DHT22;19359;51.402;6.778;2022-11-11T12:05:41;13.20;1.00
7784;DHT22;19359;51.402;6.778;2022-11-11T12:08:30;13.20;1.00
7784;DHT22;19359;51.402;6.778;2022-11-11T12:11:07;13.30;1.00
7784;DHT22;19359;51.402;6.778;2022-11-11T12:13:42;13.30;1.00
7784;DHT22;19359;51.402;6.778;2022-11-11T12:16:22;13.30;1.00
7784;DHT22;19359;51.402;6.778;2022-11-11T12:21:51;13.30;1.00
7784;DHT22;19359;51.402;6.778;2022-11-11T12:24:34;13.30;1.00
7784;DHT22;19359;51.402;6.778;2022-11-11T12:27:11;13.30;1.00
7784;DHT22;19359;51.402;6.778;2022-11-11T12:29:52;13.40;1.00
7784;DHT22;19359;51.402;6.778;2022-11-11T12:32:48;13.40;1.00
7784;DHT22;19359;51.402;6.778;2022-11-11T12:35:32;13.30;1.00
7784;DHT22;19359;51.402;6.778;2022-11-11T12:38:27;13.30;1.00
7784;DHT22;19359;51.402;6.778;2022-11-11T12:41:06;13.30;1.00
7784;DHT22;19359;51.402;6.778;2022-11-11T12:43:40;13.30;1.00
7784;DHT22;19359;51.402;6.778;2022-11-11T12:46:18;13.30;1.00
7784;DHT22;19359;51.402;6.778;2022-11-11T12:48:53;13.30;1.00
7784;DHT22;19359;51.402;6.778;2022-11-11T12:51:32;13.20;1.00
7784;DHT22;19359;51.402;6.778;2022-11-11T12:54:12;13.30;1.00
7784;DHT22;19359;51.402;6.778;2022-11-11T12:56:48;13.30;1.00
7784;DHT22;19359;51.402;6.778;2022-11-11T12:59:26;13.40;1.00
7784;DHT22;19359;51.402;6.778;2022-11-11T13:02:06;13.40;1.00
7784;DHT22;19359;51.402;6.778;2022-11-11T13:04:48;13.40;1.00
7784;DHT22;19359;51.402;6.778;2022-11-11T13:07:56;13.40;1.00
7784;DHT22;19359;51.402;6.778;2022-11-11T13:10:30;13.40;1.00
7784;DHT22;19359;51.402;6.778;2022-11-11T13:13:09;13.40;1.00
7784;DHT22;19359;51.402;6.778;2022-11-11T13:15:38;13.40;1.00
7784;DHT22;19359;51.402;6.778;2022-11-11T13:18:10;13.40;1.00
7784;DHT22;19359;51.402;6.778;2022-11-11T13:20:47;13.30;1.00
7784;DHT22;19359;51.402;6.778;2022-11-11T13:23:15;13.30;1.00
7784;DHT22;19359;51.402;6.778;2022-11-11T13:25:46;13.30;1.00
7784;DHT22;19359;51.402;6.778;2022-11-11T13:28:19;13.40;1.00
7784;DHT22;19359;51.402;6.778;2022-11-11T13:31:07;13.50;1.00
7784;DHT22;19359;51.402;6.778;2022-11-11T13:33:39;13.50;1.00
7784;DHT22;19359;51.402;6.778;2022-11-11T13:36:09;13.50;1.00
7784;DHT22;19359;51.402;6.778;2022-11-11T13:38:44;13.50;1.00
7784;DHT22;19359;51.402;6.778;2022-11-11T13:41:18;13.50;1.00
7784;DHT22;19359;51.402;6.778;2022-11-11T13:43:49;13.50;1.00
7784;DHT22;19359;51.402;6.778;2022-11-11T13:46:33;13.60;1.00
7784;DHT22;19359;51.402;6.778;2022-11-11T13:49:02;13.60;1.00
7784;DHT22;19359;51.402;6.778;2022-11-11T13:51:34;13.60;1.00
7784;DHT22;19359;51.402;6.778;2022-11-11T13:54:05;13.60;1.00
7784;DHT22;19359;51.402;6.778;2022-11-11T13:56:37;13.60;1.00
7784;DHT22;19359;51.402;6.778;2022-11-11T13:59:07;13.50;1.00
7784;DHT22;19359;51.402;6.778;2022-11-11T14:01:41;13.50;1.00
7784;DHT22;19359;51.402;6.778;2022-11-11T14:04:08;13.50;1.00
7784;DHT22;19359;51.402;6.778;2022-11-11T14:06:48;13.60;1.00
7784;DHT22;19359;51.402;6.778;2022-11-11T14:12:20;13.60;1.00
7784;DHT22;19359;51.402;6.778;2022-11-11T14:14:56;13.60;1.00
7784;DHT22;19359;51.402;6.778;2022-11-11T14:17:23;13.60;1.00
7784;DHT22;19359;51.402;6.778;2022-11-11T14:19:51;13.50;1.00
7784;DHT22;19359;51.402;6.778;2022-11-11T14:22:29;13.50;1.00
7784;DHT22;19359;51.402;6.778;2022-11-11T14:25:19;13.60;1.00
7784;DHT22;19359;51.402;6.778;2022-11-11T14:27:47;13.70;1.00
7784;DHT22;19359;51.402;6.778;2022-11-11T14:30:35;13.60;1.00
7784;DHT22;19359;51.402;6.778;2022-11-11T14:33:07;13.60;1.00
7784;DHT22;19359;51.402;6.778;2022-11-11T14:35:41;13.60;1.00
7784;DHT22;19359;51.402;6.778;2022-11-11T14:38:33;13.60;1.00
7784;DHT22;19359;51.402;6.778;2022-11-11T14:41:43;13.50;1.00
7784;DHT22;19359;51.402;6.778;2022-11-11T14:44:39;13.40;1.00
7784;DHT22;19359;51.402;6.778;2022-11-11T14:47:31;13.30;1.00
7784;DHT22;19359;51.402;6.778;2022-11-11T14:49:58;13.20;1.00
7784;DHT22;19359;51.402;6.778;2022-11-11T14:52:31;13.00;1.00
7784;DHT22;19359;51.402;6.778;2022-11-11T14:55:12;12.90;1.00
7784;DHT22;19359;51.402;6.778;2022-11-11T14:57:44;12.80;1.00
7784;DHT22;19359;51.402;6.778;2022-11-11T15:00:14;12.80;1.00
7784;DHT22;19359;51.402;6.778;2022-11-11T15:02:48;12.70;1.00
7784;DHT22;19359;51.402;6.778;2022-11-11T15:05:19;12.70;1.00
7784;DHT22;19359;51.402;6.778;2022-11-11T15:07:59;12.70;1.00
7784;DHT22;19359;51.402;6.778;2022-11-11T15:10:34;12.60;1.00
7784;DHT22;19359;51.402;6.778;2022-11-11T15:13:36;12.50;1.00
7784;DHT22;19359;51.402;6.778;2022-11-11T15:16:16;12.30;1.00
7784;DHT22;19359;51.402;6.778;2022-11-11T15:19:02;12.20;1.00
7784;DHT22;19359;51.402;6.778;2022-11-11T15:21:33;12.10;1.00
7784;DHT22;19359;51.402;6.778;2022-11-11T15:24:10;11.90;1.00
7784;DHT22;19359;51.402;6.778;2022-11-11T15:26:44;11.80;1.00
7784;DHT22;19359;51.402;6.778;2022-11-11T15:29:32;11.70;1.00
7784;DHT22;19359;51.402;6.778;2022-11-11T15:32:06;11.60;1.00
7784;DHT22;19359;51.402;6.778;2022-11-11T15:34:41;11.40;1.00
7784;DHT22;19359;51.402;6.778;2022-11-11T15:37:10;11.30;1.00
7784;DHT22;19359;51.402;6.778;2022-11-11T15:39:40;11.10;1.00
7784;DHT22;19359;51.402;6.778;2022-11-11T15:42:17;11.00;1.00
7784;DHT22;19359;51.402;6.778;2022-11-11T15:44:44;10.80;1.00
7784;DHT22;19359;51.402;6.778;2022-11-11T15:47:13;10.60;1.00
7784;DHT22;19359;51.402;6.778;2022-11-11T15:49:43;10.40;1.00
7784;DHT22;19359;51.402;6.778;2022-11-11T15:52:29;10.30;1.00
7784;DHT22;19359;51.402;6.778;2022-11-11T15:54:57;10.10;1.00
7784;DHT22;19359;51.402;6.778;2022-11-11T15:57:25;10.00;1.00
7784;DHT22;19359;51.402;6.778;2022-11-11T15:59:53;9.80;1.00
7784;DHT22;19359;51.402;6.778;2022-11-11T16:02:22;9.70;1.00
7784;DHT22;19359;51.402;6.778;2022-11-11T16:04:54;9.60;1.00
7784;DHT22;19359;51.402;6.778;2022-11-11T16:07:23;9.50;1.00
7784;DHT22;19359;51.402;6.778;2022-11-11T16:09:51;9.40;1.00
7784;DHT22;19359;51.402;6.778;2022-11-11T16:12:21;9.30;1.00
7784;DHT22;19359;51.402;6.778;2022-11-11T16:14:52;9.10;1.00
7784;DHT22;19359;51.402;6.778;2022-11-11T16:17:21;9.10;1.00
7784;DHT22;19359;51.402;6.778;2022-11-11T16:19:48;9.00;1.00
7784;DHT22;19359;51.402;6.778;2022-11-11T16:22:20;8.90;1.00
7784;DHT22;19359;51.402;6.778;2022-11-11T16:24:48;8.80;1.00
7784;DHT22;19359;51.402;6.778;2022-11-11T16:27:17;8.70;1.00
7784;DHT22;19359;51.402;6.778;2022-11-11T16:29:44;8.60;1.00
7784;DHT22;19359;51.402;6.778;2022-11-11T16:35:01;8.50;1.00
7784;DHT22;19359;51.402;6.778;2022-11-11T16:37:29;8.40;1.00
7784;DHT22;19359;51.402;6.778;2022-11-11T16:39:55;8.30;1.00
7784;DHT22;19359;51.402;6.778;2022-11-11T16:42:23;8.30;1.00
7784;DHT22;19359;51.402;6.778;2022-11-11T16:44:56;8.20;1.00
7784;DHT22;19359;51.402;6.778;2022-11-11T16:47:43;8.10;1.00